Time;durP1;ratioP1;P1;durP2;ratioP2;P2;SDS_P1;SDS_P2;PMS_P1;PMS_P2;Temp;Humidity;BMP_temperature;BMP_pressure;BME280_temperature;BME280_humidity;BME280_pressure;Samples;Min_cycle;Max_cycle;Signal;HPM_P1;HPM_P2
2021/05/08 00:00:56;;;;;;;9.50;6.63;;;7.20;99.90;;;;;;5105507;28;20207;-74
2021/05/08 00:03:22;;;;;;;11.90;7.20;;;7.10;99.90;;;;;;5104013;28;20282;-72
2021/05/08 00:05:49;;;;;;;11.70;7.03;;;7.20;99.90;;;;;;5102360;28;20204;-75
2021/05/08 00:08:16;;;;;;;10.10;7.43;;;7.10;99.90;;;;;;5103891;28;20683;-76
2021/05/08 00:10:42;;;;;;;10.07;7.30;;;7.10;99.90;;;;;;5106012;28;20200;-72
2021/05/08 00:13:09;;;;;;;10.10;7.03;;;7.00;99.90;;;;;;5108916;28;20595;-73
2021/05/08 00:15:37;;;;;;;11.77;7.63;;;7.00;99.90;;;;;;5104366;28;20303;-73
2021/05/08 00:18:03;;;;;;;11.67;8.03;;;7.00;99.90;;;;;;5105548;28;20191;-76
2021/05/08 00:20:29;;;;;;;14.03;8.03;;;6.90;99.90;;;;;;5104168;28;20186;-73
2021/05/08 00:22:56;;;;;;;13.10;7.57;;;6.90;99.90;;;;;;5098914;28;20234;-73
2021/05/08 00:25:22;;;;;;;12.57;7.70;;;6.80;99.90;;;;;;5103209;28;20225;-72
2021/05/08 00:27:49;;;;;;;14.50;9.07;;;6.80;99.90;;;;;;5102883;28;20209;-72
2021/05/08 00:30:16;;;;;;;13.73;7.37;;;6.70;99.90;;;;;;5102217;28;20193;-72
2021/05/08 00:32:44;;;;;;;11.23;8.10;;;6.60;99.90;;;;;;5101642;28;20655;-73
2021/05/08 00:35:10;;;;;;;16.93;8.63;;;6.60;99.90;;;;;;5106922;28;20347;-73
2021/05/08 00:37:36;;;;;;;12.23;8.13;;;6.70;99.90;;;;;;5103057;28;20206;-75
2021/05/08 00:40:04;;;;;;;13.20;8.17;;;6.50;99.90;;;;;;5103056;28;20222;-72
2021/05/08 00:42:30;;;;;;;17.27;8.40;;;6.40;99.90;;;;;;5102717;28;20618;-75
2021/05/08 00:44:56;;;;;;;17.37;8.30;;;6.40;99.90;;;;;;5107877;28;20283;-73
2021/05/08 00:47:23;;;;;;;15.57;7.63;;;6.30;99.90;;;;;;5102953;28;20190;-74
2021/05/08 00:49:50;;;;;;;12.77;7.73;;;6.20;99.90;;;;;;5103481;28;20597;-75
2021/05/08 00:52:17;;;;;;;11.60;8.40;;;6.20;99.90;;;;;;5100902;28;20189;-75
2021/05/08 00:54:43;;;;;;;15.87;8.13;;;6.10;99.90;;;;;;5105856;28;20716;-75
2021/05/08 00:57:11;;;;;;;14.33;8.43;;;6.00;99.90;;;;;;5108003;28;20569;-74
2021/05/08 00:59:37;;;;;;;12.13;7.97;;;6.10;99.90;;;;;;5106493;28;20246;-73
2021/05/08 01:02:04;;;;;;;16.47;8.40;;;6.20;99.90;;;;;;5110692;28;20647;-76
2021/05/08 01:04:31;;;;;;;10.90;8.00;;;6.20;99.90;;;;;;5105500;28;20188;-73
2021/05/08 01:06:59;;;;;;;13.10;8.33;;;6.30;99.90;;;;;;5102953;28;20214;-76
2021/05/08 01:09:25;;;;;;;11.80;7.77;;;6.40;99.90;;;;;;5110917;28;20212;-74
2021/05/08 01:11:52;;;;;;;12.97;7.90;;;6.60;99.90;;;;;;5109880;28;20318;-74
2021/05/08 01:14:19;;;;;;;13.53;8.17;;;6.80;99.90;;;;;;5104810;28;20203;-73
2021/05/08 01:16:46;;;;;;;14.07;7.73;;;6.90;99.90;;;;;;5107967;28;20191;-73
2021/05/08 01:19:16;;;;;;;12.90;8.43;;;7.20;99.90;;;;;;5107276;28;20264;-74
2021/05/08 01:21:43;;;;;;;13.77;8.63;;;7.30;99.90;;;;;;5112774;28;20191;-75
2021/05/08 01:24:10;;;;;;;11.57;7.90;;;7.50;99.90;;;;;;5110118;28;20201;-73
2021/05/08 01:26:36;;;;;;;12.37;8.47;;;7.70;99.90;;;;;;5105508;28;20206;-73
2021/05/08 01:29:04;;;;;;;12.17;8.17;;;7.80;99.90;;;;;;5108016;28;20222;-73
2021/05/08 01:31:31;;;;;;;10.67;7.97;;;7.80;99.90;;;;;;5109915;28;20188;-73
2021/05/08 01:33:57;;;;;;;13.80;8.10;;;7.90;99.90;;;;;;5108397;28;20290;-74
2021/05/08 01:36:25;;;;;;;12.60;7.80;;;8.00;99.90;;;;;;5108396;28;20188;-75
2021/05/08 01:38:53;;;;;;;12.63;8.33;;;8.00;99.90;;;;;;5108742;28;20212;-73
2021/05/08 01:41:19;;;;;;;15.83;8.03;;;8.00;99.90;;;;;;5106489;28;20284;-76
2021/05/08 01:43:46;;;;;;;11.00;8.07;;;8.00;99.90;;;;;;5112663;28;20364;-74
2021/05/08 01:46:12;;;;;;;13.63;8.30;;;8.10;99.90;;;;;;5107546;28;20190;-73
2021/05/08 01:48:38;;;;;;;13.13;7.53;;;8.10;99.90;;;;;;5102461;28;20665;-76
2021/05/08 01:51:05;;;;;;;12.73;7.80;;;8.10;99.90;;;;;;5108151;28;20188;-73
2021/05/08 01:53:31;;;;;;;14.13;8.10;;;8.10;99.90;;;;;;5105522;28;20691;-73
2021/05/08 01:55:59;;;;;;;12.17;7.83;;;8.00;99.90;;;;;;5106575;28;20224;-75
2021/05/08 01:58:25;;;;;;;9.57;7.40;;;8.00;99.90;;;;;;5104000;28;20676;-76
2021/05/08 02:00:52;;;;;;;16.20;7.87;;;7.90;99.90;;;;;;5107158;28;20205;-75
2021/05/08 02:03:18;;;;;;;12.77;7.90;;;7.80;99.90;;;;;;5104845;28;20187;-74
2021/05/08 02:05:46;;;;;;;12.70;8.20;;;7.80;99.90;;;;;;5098627;28;20196;-75
2021/05/08 02:08:14;;;;;;;11.73;7.87;;;7.80;99.90;;;;;;5106694;28;20370;-74
2021/05/08 02:10:43;;;;;;;12.30;8.10;;;7.80;99.90;;;;;;5107064;28;20186;-74
2021/05/08 02:13:11;;;;;;;13.87;7.77;;;7.80;99.90;;;;;;5111909;28;20188;-75
2021/05/08 02:15:38;;;;;;;16.60;8.67;;;7.80;99.90;;;;;;5105466;28;20646;-74
2021/05/08 02:18:06;;;;;;;13.83;7.77;;;7.80;99.90;;;;;;5105375;28;20669;-73
2021/05/08 02:20:35;;;;;;;13.87;7.93;;;7.80;99.90;;;;;;5106173;28;20196;-74
2021/05/08 02:23:04;;;;;;;13.20;8.20;;;7.70;99.90;;;;;;5108025;28;20202;-74
2021/05/08 02:25:31;;;;;;;14.23;7.97;;;7.70;99.90;;;;;;5103978;28;20192;-73
2021/05/08 02:27:58;;;;;;;15.27;8.43;;;7.80;99.90;;;;;;5103053;28;20207;-73
2021/05/08 02:30:28;;;;;;;13.80;8.10;;;7.80;99.90;;;;;;5109259;28;20546;-76
2021/05/08 02:32:55;;;;;;;12.20;7.40;;;7.80;99.90;;;;;;5106761;28;20220;-73
2021/05/08 02:35:23;;;;;;;13.30;7.63;;;7.90;99.90;;;;;;5101056;28;20291;-74
2021/05/08 02:37:50;;;;;;;15.13;8.77;;;8.00;99.90;;;;;;5108451;28;20196;-74
2021/05/08 02:40:18;;;;;;;14.87;7.97;;;8.00;99.90;;;;;;5107570;28;20249;-75
2021/05/08 02:42:44;;;;;;;11.43;7.33;;;7.90;99.90;;;;;;5105224;28;20198;-76
2021/05/08 02:45:13;;;;;;;14.50;8.20;;;8.00;99.90;;;;;;5109521;28;20203;-73
2021/05/08 02:47:42;;;;;;;12.17;6.87;;;7.90;99.90;;;;;;5110487;28;20227;-74
2021/05/08 02:50:10;;;;;;;14.87;7.53;;;8.00;99.90;;;;;;5107378;28;20312;-73
2021/05/08 02:52:37;;;;;;;11.13;6.53;;;8.00;99.90;;;;;;5103616;28;20237;-74
2021/05/08 02:55:04;;;;;;;12.70;7.00;;;8.10;99.90;;;;;;5105930;28;20562;-74
2021/05/08 02:57:31;;;;;;;13.67;6.60;;;8.10;99.90;;;;;;5101425;28;20291;-73
2021/05/08 02:59:57;;;;;;;13.63;6.70;;;8.10;99.90;;;;;;5101793;28;20196;-76
2021/05/08 03:02:24;;;;;;;13.33;6.10;;;8.20;99.90;;;;;;5105896;28;20570;-73
2021/05/08 03:04:51;;;;;;;11.70;5.40;;;8.20;99.90;;;;;;5105933;28;20197;-73
2021/05/08 03:07:17;;;;;;;11.10;5.77;;;8.20;99.90;;;;;;5104524;28;20193;-74
2021/05/08 03:09:44;;;;;;;11.70;4.83;;;8.40;99.90;;;;;;5107829;28;20306;-74
2021/05/08 03:12:11;;;;;;;10.10;5.57;;;8.40;99.90;;;;;;5104411;28;20257;-74
2021/05/08 03:14:37;;;;;;;14.23;5.83;;;8.50;99.90;;;;;;5103131;28;20197;-74
2021/05/08 03:17:04;;;;;;;16.60;5.50;;;8.60;99.90;;;;;;5105530;28;20654;-73
2021/05/08 03:19:30;;;;;;;7.20;4.53;;;8.60;99.90;;;;;;5103421;28;20203;-76
2021/05/08 03:21:57;;;;;;;14.60;5.03;;;8.60;99.90;;;;;;5108025;28;20216;-73
2021/05/08 03:24:23;;;;;;;12.67;4.93;;;8.50;99.90;;;;;;5104751;28;20304;-75
2021/05/08 03:26:50;;;;;;;9.57;5.10;;;8.60;99.90;;;;;;5104487;28;20283;-77
2021/05/08 03:29:16;;;;;;;9.53;5.00;;;8.70;99.90;;;;;;5105212;28;20331;-73
2021/05/08 03:31:43;;;;;;;11.17;5.00;;;8.70;99.90;;;;;;5106422;28;20605;-76
2021/05/08 03:34:09;;;;;;;11.03;5.07;;;8.70;99.90;;;;;;5104873;28;20189;-74
2021/05/08 03:36:35;;;;;;;9.33;4.80;;;8.70;99.90;;;;;;5105210;28;20203;-76
2021/05/08 03:39:04;;;;;;;11.23;4.93;;;8.70;99.90;;;;;;5105607;28;20256;-73
2021/05/08 03:41:30;;;;;;;12.10;5.30;;;8.60;99.90;;;;;;5107716;28;20600;-73
2021/05/08 03:43:56;;;;;;;10.30;4.90;;;8.50;99.90;;;;;;5102760;28;20201;-75
2021/05/08 03:46:23;;;;;;;10.33;4.37;;;8.50;99.90;;;;;;5101115;28;20633;-73
2021/05/08 03:48:49;;;;;;;8.47;4.27;;;8.70;99.90;;;;;;5104277;28;20625;-73
2021/05/08 03:51:16;;;;;;;11.07;4.47;;;8.80;99.90;;;;;;5104530;28;20193;-74
2021/05/08 03:53:42;;;;;;;8.03;4.20;;;8.80;99.90;;;;;;5103243;28;20195;-75
2021/05/08 03:56:10;;;;;;;10.53;4.23;;;8.80;99.90;;;;;;5106836;28;20717;-72
2021/05/08 03:58:37;;;;;;;7.70;3.70;;;8.80;99.90;;;;;;5101663;28;20199;-74
2021/05/08 04:01:03;;;;;;;10.87;4.30;;;9.00;99.90;;;;;;5105620;28;20199;-72
2021/05/08 04:03:29;;;;;;;6.23;3.43;;;9.10;99.90;;;;;;5103879;28;20265;-73
2021/05/08 04:05:56;;;;;;;8.60;4.10;;;9.00;99.90;;;;;;5100413;28;20200;-74
2021/05/08 04:08:22;;;;;;;9.30;4.27;;;9.10;99.90;;;;;;5101666;28;20221;-73
2021/05/08 04:10:49;;;;;;;9.10;3.80;;;9.30;99.90;;;;;;5102518;28;20199;-74
2021/05/08 04:13:17;;;;;;;8.77;3.67;;;9.40;99.90;;;;;;5104081;28;20188;-74
2021/05/08 04:15:44;;;;;;;10.50;4.63;;;9.60;99.90;;;;;;5099801;28;20190;-75
2021/05/08 04:18:12;;;;;;;8.73;4.23;;;9.50;99.90;;;;;;5105645;28;20675;-73
2021/05/08 04:20:38;;;;;;;8.83;3.43;;;9.50;99.90;;;;;;5101768;28;20560;-73
2021/05/08 04:23:05;;;;;;;7.57;3.43;;;9.70;99.90;;;;;;5100534;28;20206;-74
2021/05/08 04:25:32;;;;;;;5.20;3.43;;;9.80;99.90;;;;;;5105805;28;20192;-76
2021/05/08 04:27:58;;;;;;;11.03;3.83;;;9.90;99.90;;;;;;5103726;28;20198;-74
2021/05/08 04:30:26;;;;;;;8.37;3.43;;;9.90;99.90;;;;;;5103170;28;20718;-74
2021/05/08 04:32:52;;;;;;;9.67;3.97;;;10.20;99.90;;;;;;5101668;28;20195;-73
2021/05/08 04:35:18;;;;;;;8.13;3.47;;;10.30;99.90;;;;;;5101523;28;20197;-73
2021/05/08 04:37:45;;;;;;;8.23;3.60;;;10.40;99.90;;;;;;5105082;28;20191;-73
2021/05/08 04:40:12;;;;;;;7.93;3.60;;;10.60;99.90;;;;;;5104547;28;20202;-75
2021/05/08 04:42:38;;;;;;;7.93;3.77;;;10.70;99.90;;;;;;5101209;28;20197;-73
2021/05/08 04:45:07;;;;;;;8.20;4.23;;;10.70;99.90;;;;;;5105002;28;20198;-76
2021/05/08 04:47:34;;;;;;;9.40;3.70;;;10.80;99.90;;;;;;5103227;28;20296;-73
2021/05/08 04:50:03;;;;;;;9.47;4.40;;;10.80;99.90;;;;;;5104105;28;20688;-73
2021/05/08 04:52:30;;;;;;;8.17;3.60;;;10.90;99.90;;;;;;5101247;28;20197;-76
2021/05/08 04:54:56;;;;;;;9.27;4.07;;;10.90;99.90;;;;;;5105320;28;20193;-76
2021/05/08 04:57:22;;;;;;;7.13;3.23;;;10.90;99.90;;;;;;5102749;28;20248;-76
2021/05/08 04:59:49;;;;;;;9.83;4.23;;;11.10;99.90;;;;;;5099161;28;20571;-73
2021/05/08 05:02:15;;;;;;;11.40;4.47;;;11.10;99.90;;;;;;5100443;28;20201;-74
2021/05/08 05:04:42;;;;;;;11.10;4.30;;;11.00;99.90;;;;;;5105591;28;20280;-73
2021/05/08 05:07:08;;;;;;;11.70;4.10;;;11.10;99.90;;;;;;5106303;28;20342;-76
2021/05/08 05:09:35;;;;;;;8.53;3.73;;;11.10;99.90;;;;;;5105516;28;20681;-73
2021/05/08 05:12:01;;;;;;;9.13;4.03;;;11.30;99.90;;;;;;5100475;28;20284;-74
2021/05/08 05:14:28;;;;;;;8.80;3.87;;;11.20;99.90;;;;;;5104026;28;20193;-73
2021/05/08 05:16:54;;;;;;;11.00;3.67;;;11.20;99.90;;;;;;5103945;28;20600;-73
2021/05/08 05:19:21;;;;;;;9.57;4.23;;;11.20;99.90;;;;;;5102559;28;20191;-76
2021/05/08 05:21:48;;;;;;;9.53;3.80;;;11.20;99.90;;;;;;5104744;28;20211;-73
2021/05/08 05:24:15;;;;;;;10.67;4.03;;;11.30;99.90;;;;;;5102156;28;20199;-76
2021/05/08 05:26:41;;;;;;;12.03;4.37;;;11.40;99.90;;;;;;5100638;28;20345;-74
2021/05/08 05:29:09;;;;;;;8.07;3.40;;;11.50;99.90;;;;;;5104057;28;20299;-73
2021/05/08 05:31:36;;;;;;;7.40;3.60;;;11.50;99.90;;;;;;5103874;28;20194;-73
2021/05/08 05:34:03;;;;;;;8.20;3.60;;;11.50;99.90;;;;;;5104013;28;20217;-74
2021/05/08 05:36:30;;;;;;;10.93;3.93;;;11.70;99.90;;;;;;5104056;28;20197;-73
2021/05/08 05:38:57;;;;;;;7.27;3.30;;;11.80;99.90;;;;;;5102101;28;20218;-74
2021/05/08 05:41:23;;;;;;;8.53;3.50;;;12.00;99.90;;;;;;5102750;28;20193;-73
2021/05/08 05:43:50;;;;;;;9.27;3.90;;;12.00;99.90;;;;;;5109023;28;20284;-76
2021/05/08 05:46:16;;;;;;;7.07;3.43;;;12.20;99.90;;;;;;5104941;28;20455;-74
2021/05/08 05:48:42;;;;;;;9.23;4.03;;;12.20;99.90;;;;;;5107698;28;20308;-74
2021/05/08 05:51:09;;;;;;;13.47;4.00;;;12.10;99.90;;;;;;5104379;28;20191;-76
2021/05/08 05:53:35;;;;;;;7.87;3.47;;;12.10;99.90;;;;;;5107864;28;20227;-73
2021/05/08 05:56:02;;;;;;;8.97;3.57;;;12.20;99.90;;;;;;5112723;28;20189;-76
2021/05/08 05:58:29;;;;;;;9.03;3.67;;;12.00;99.90;;;;;;5107550;28;20201;-76
2021/05/08 06:00:55;;;;;;;6.63;3.30;;;12.00;99.90;;;;;;5106430;28;20659;-75
2021/05/08 06:03:22;;;;;;;8.10;3.83;;;12.00;99.90;;;;;;5106450;28;20647;-75
2021/05/08 06:05:48;;;;;;;6.63;3.13;;;12.00;99.90;;;;;;5104442;28;20202;-76
2021/05/08 06:08:15;;;;;;;11.17;3.40;;;12.00;99.90;;;;;;5107557;28;20200;-74
2021/05/08 06:10:41;;;;;;;6.80;2.80;;;11.90;99.90;;;;;;5109536;28;20737;-77
2021/05/08 06:13:08;;;;;;;10.03;3.07;;;11.90;99.90;;;;;;5107994;28;20201;-76
2021/05/08 06:15:34;;;;;;;7.97;3.30;;;12.00;99.90;;;;;;5116079;28;20542;-76
2021/05/08 06:18:01;;;;;;;7.63;3.30;;;11.90;99.90;;;;;;5115674;28;20196;-75
2021/05/08 06:20:27;;;;;;;8.33;2.90;;;11.90;99.90;;;;;;5115972;28;20203;-74
2021/05/08 06:22:54;;;;;;;5.07;2.77;;;11.80;99.90;;;;;;5116072;28;20595;-73
2021/05/08 06:25:21;;;;;;;9.90;3.00;;;11.90;99.90;;;;;;5114817;28;20203;-73
2021/05/08 06:27:47;;;;;;;9.23;3.00;;;11.80;99.90;;;;;;5115769;28;20229;-73
2021/05/08 06:30:15;;;;;;;8.03;2.90;;;11.80;99.90;;;;;;5115623;28;20701;-76
2021/05/08 06:32:42;;;;;;;6.67;2.90;;;11.60;99.90;;;;;;5115657;28;20296;-75
2021/05/08 06:35:09;;;;;;;7.53;3.40;;;11.60;99.90;;;;;;5115503;28;20298;-74
2021/05/08 06:37:35;;;;;;;6.37;3.00;;;11.70;99.90;;;;;;5095281;28;20746;-75
2021/05/08 06:40:01;;;;;;;6.43;3.00;;;11.70;99.90;;;;;;5108892;28;20724;-74
2021/05/08 06:42:28;;;;;;;7.27;2.77;;;11.80;99.90;;;;;;5115078;28;20634;-73
2021/05/08 06:44:54;;;;;;;7.63;3.27;;;11.90;99.90;;;;;;5114997;28;20197;-73
2021/05/08 06:47:21;;;;;;;6.60;2.80;;;12.00;99.90;;;;;;5115686;28;20596;-73
2021/05/08 06:49:47;;;;;;;5.57;3.07;;;12.10;99.90;;;;;;5115414;28;20235;-73
2021/05/08 06:52:14;;;;;;;5.90;2.90;;;12.10;99.90;;;;;;5114376;28;20195;-74
2021/05/08 06:54:40;;;;;;;4.50;2.27;;;12.10;99.90;;;;;;5114957;28;20201;-73
2021/05/08 06:57:06;;;;;;;6.40;3.07;;;12.10;99.90;;;;;;5115316;27;20197;-75
2021/05/08 06:59:33;;;;;;;6.97;3.00;;;12.20;99.90;;;;;;5115317;28;20746;-75
2021/05/08 07:01:59;;;;;;;6.43;2.83;;;12.30;99.90;;;;;;5115219;28;20211;-76
2021/05/08 07:04:26;;;;;;;5.10;2.53;;;12.50;99.90;;;;;;5115203;27;20280;-74
2021/05/08 07:06:53;;;;;;;7.23;2.77;;;12.50;99.90;;;;;;5115074;28;20190;-73
2021/05/08 07:09:19;;;;;;;10.27;2.83;;;12.60;99.90;;;;;;5113889;28;20582;-73
2021/05/08 07:11:45;;;;;;;4.27;2.50;;;12.60;99.90;;;;;;5114282;28;20277;-76
2021/05/08 07:14:12;;;;;;;8.13;2.93;;;12.60;99.90;;;;;;5114576;28;20200;-74
2021/05/08 07:16:38;;;;;;;7.27;3.17;;;12.80;99.90;;;;;;5114983;28;20206;-73
2021/05/08 07:19:05;;;;;;;7.00;2.90;;;12.80;99.90;;;;;;5114570;28;20198;-75
2021/05/08 07:21:32;;;;;;;6.53;2.43;;;12.70;99.90;;;;;;5114150;28;20237;-74
2021/05/08 07:23:58;;;;;;;3.60;2.30;;;12.70;99.90;;;;;;5113967;28;20274;-76
2021/05/08 07:26:25;;;;;;;6.30;2.20;;;12.60;99.90;;;;;;5114428;28;20312;-73
2021/05/08 07:28:51;;;;;;;4.10;2.30;;;12.80;99.90;;;;;;5114569;28;20214;-75
2021/05/08 07:31:17;;;;;;;8.77;2.50;;;12.80;99.90;;;;;;5114228;28;20299;-73
2021/05/08 07:33:43;;;;;;;3.30;1.97;;;12.90;99.90;;;;;;5114369;28;20288;-76
2021/05/08 07:36:10;;;;;;;6.63;2.40;;;12.90;99.90;;;;;;5113970;28;20607;-73
2021/05/08 07:38:37;;;;;;;5.60;2.27;;;12.90;99.90;;;;;;5114134;28;20285;-76
2021/05/08 07:41:04;;;;;;;4.93;1.93;;;12.80;99.90;;;;;;5113893;27;20243;-77
2021/05/08 07:43:31;;;;;;;8.47;2.63;;;12.70;99.90;;;;;;5113719;28;20724;-74
2021/05/08 07:45:57;;;;;;;4.00;2.27;;;12.60;99.90;;;;;;5114261;28;20236;-77
2021/05/08 07:48:23;;;;;;;5.80;2.73;;;12.60;99.90;;;;;;5114547;27;20205;-73
2021/05/08 07:50:50;;;;;;;3.13;2.20;;;12.50;99.90;;;;;;5117727;27;20228;-73
2021/05/08 07:53:16;;;;;;;6.67;2.60;;;12.50;99.90;;;;;;5115073;27;20200;-74
2021/05/08 07:55:43;;;;;;;4.90;2.13;;;12.50;99.90;;;;;;5113727;28;20277;-75
2021/05/08 07:58:10;;;;;;;5.10;2.30;;;12.50;99.90;;;;;;5113369;28;20205;-73
2021/05/08 08:00:36;;;;;;;7.73;2.47;;;12.50;99.90;;;;;;5112573;28;20202;-73
2021/05/08 08:03:03;;;;;;;6.43;2.37;;;12.60;99.90;;;;;;5112696;28;20202;-75
2021/05/08 08:05:29;;;;;;;3.97;2.27;;;12.60;99.90;;;;;;5112700;28;20241;-75
2021/05/08 08:07:56;;;;;;;3.87;1.93;;;12.70;99.90;;;;;;5114348;28;20190;-74
2021/05/08 08:10:23;;;;;;;11.70;2.40;;;12.80;99.90;;;;;;5113331;28;20699;-76
2021/05/08 08:12:50;;;;;;;6.83;2.43;;;12.90;99.90;;;;;;5113641;28;20740;-76
2021/05/08 08:15:17;;;;;;;4.90;2.37;;;12.90;99.90;;;;;;5114114;28;20198;-74
2021/05/08 08:17:44;;;;;;;3.87;2.30;;;12.80;99.90;;;;;;5113096;28;20200;-76
2021/05/08 08:20:12;;;;;;;5.97;2.13;;;12.80;99.90;;;;;;5113850;28;20208;-75
2021/05/08 08:22:40;;;;;;;4.03;2.67;;;12.70;99.90;;;;;;5113429;28;20190;-77
2021/05/08 08:25:08;;;;;;;5.30;2.97;;;12.80;99.90;;;;;;5113830;28;20203;-73
2021/05/08 08:27:35;;;;;;;4.37;2.10;;;13.00;99.90;;;;;;5113716;28;20676;-75
2021/05/08 08:30:03;;;;;;;4.53;2.30;;;13.20;99.90;;;;;;5112837;28;20308;-76
2021/05/08 08:32:30;;;;;;;4.30;2.27;;;13.30;99.90;;;;;;5111817;28;20252;-74
2021/05/08 08:34:56;;;;;;;4.87;2.37;;;13.50;99.90;;;;;;5112574;28;20348;-76
2021/05/08 08:37:22;;;;;;;4.87;2.27;;;13.60;99.90;;;;;;5114279;28;20546;-74
2021/05/08 08:39:49;;;;;;;4.00;2.20;;;13.60;99.90;;;;;;5117022;28;20289;-76
2021/05/08 08:42:16;;;;;;;6.30;2.50;;;13.50;99.90;;;;;;5117682;28;20548;-75
2021/05/08 08:44:43;;;;;;;6.03;2.27;;;13.80;99.90;;;;;;5117273;28;20196;-74
2021/05/08 08:49:54;;;;;;;5.63;2.33;;;14.10;99.90;;;;;;5118444;27;20676;-77
2021/05/08 08:52:20;;;;;;;4.77;2.30;;;14.00;99.90;;;;;;5118240;28;20226;-77
2021/05/08 08:54:47;;;;;;;4.00;2.53;;;14.10;99.90;;;;;;5118217;28;20754;-76
2021/05/08 08:57:14;;;;;;;8.40;2.57;;;14.10;99.90;;;;;;5118113;28;20190;-79
2021/05/08 08:59:43;;;;;;;4.33;2.07;;;14.40;99.90;;;;;;5121409;28;20193;-75
2021/05/08 09:02:10;;;;;;;5.33;2.47;;;14.40;99.90;;;;;;5118149;28;20197;-75
2021/05/08 09:04:36;;;;;;;7.20;2.87;;;14.20;99.90;;;;;;5119299;28;20281;-75
2021/05/08 09:07:03;;;;;;;5.83;2.23;;;14.20;99.90;;;;;;5118377;28;20276;-78
2021/05/08 09:09:30;;;;;;;4.97;2.53;;;14.40;99.90;;;;;;5119648;28;20245;-76
2021/05/08 09:11:57;;;;;;;7.03;2.80;;;14.50;99.90;;;;;;5120996;28;20743;-76
2021/05/08 09:14:25;;;;;;;5.57;2.33;;;14.40;99.90;;;;;;5119289;28;20198;-77
2021/05/08 09:17:06;;;;;;;5.13;2.50;;;14.40;99.90;;;;;;5121901;27;20201;-75
2021/05/08 09:19:35;;;;;;;5.70;3.00;;;14.20;99.90;;;;;;5129062;27;20692;-74
2021/05/08 09:22:30;;;;;;;8.67;2.43;;;13.90;99.90;;;;;;5121781;27;20193;-73
2021/05/08 09:25:03;;;;;;;3.63;2.50;;;13.80;99.90;;;;;;5119751;27;20648;-78
2021/05/08 09:27:38;;;;;;;3.73;2.70;;;13.60;99.90;;;;;;5127810;27;20674;-76
2021/05/08 09:30:07;;;;;;;4.53;2.60;;;13.40;99.90;;;;;;5125500;27;20222;-73
2021/05/08 09:32:38;;;;;;;5.97;2.73;;;13.30;99.90;;;;;;5133457;27;20201;-75
2021/05/08 09:35:09;;;;;;;6.17;2.67;;;13.20;99.90;;;;;;5129212;27;20236;-75
2021/05/08 09:37:37;;;;;;;5.67;2.80;;;13.30;99.90;;;;;;5121030;27;20215;-77
2021/05/08 09:40:14;;;;;;;4.57;2.63;;;13.20;99.90;;;;;;5124577;27;20201;-78
2021/05/08 09:42:46;;;;;;;5.43;3.07;;;13.30;99.90;;;;;;5126497;27;20197;-75
2021/05/08 09:45:14;;;;;;;4.93;3.00;;;13.30;99.90;;;;;;5127688;27;20197;-75
2021/05/08 09:47:41;;;;;;;9.53;3.03;;;13.40;99.90;;;;;;5122073;27;20217;-76
2021/05/08 09:50:09;;;;;;;6.90;2.90;;;13.30;99.90;;;;;;5127201;27;20568;-79
2021/05/08 09:52:56;;;;;;;10.53;3.43;;;13.00;99.90;;;;;;5120444;27;20198;-78
2021/05/08 09:55:57;;;;;;;6.93;2.90;;;12.90;99.90;;;;;;5128041;27;20197;-78
2021/05/08 09:58:25;;;;;;;6.57;3.43;;;12.80;99.90;;;;;;5125231;27;20277;-76
2021/05/08 10:00:52;;;;;;;4.90;3.10;;;13.00;99.90;;;;;;5123073;27;20205;-78
2021/05/08 10:03:20;;;;;;;6.33;3.10;;;13.20;99.90;;;;;;5124477;27;20564;-76
2021/05/08 10:06:09;;;;;;;8.13;3.20;;;13.20;99.90;;;;;;5122773;27;20194;-76
2021/05/08 10:08:36;;;;;;;4.33;2.90;;;13.10;99.90;;;;;;5124605;27;20246;-79
2021/05/08 10:11:03;;;;;;;7.70;3.20;;;13.00;99.90;;;;;;5124187;27;20718;-75
2021/05/08 10:13:31;;;;;;;7.23;3.40;;;13.00;99.90;;;;;;5123502;27;20277;-75
2021/05/08 10:15:59;;;;;;;5.57;2.80;;;12.90;99.90;;;;;;5120746;27;20198;-77
2021/05/08 10:18:26;;;;;;;7.77;3.40;;;12.90;99.90;;;;;;5121015;27;20201;-76
2021/05/08 10:20:55;;;;;;;4.67;2.87;;;13.00;99.90;;;;;;5125169;27;20202;-75
2021/05/08 10:23:27;;;;;;;5.33;3.00;;;13.00;99.90;;;;;;5121160;27;20564;-75
2021/05/08 10:25:54;;;;;;;6.17;2.97;;;13.20;99.90;;;;;;5114398;27;20219;-75
2021/05/08 10:28:21;;;;;;;6.77;2.93;;;13.50;99.90;;;;;;5116212;27;20229;-75
2021/05/08 10:30:48;;;;;;;4.47;3.00;;;13.80;99.90;;;;;;5116929;27;20286;-75
2021/05/08 10:33:16;;;;;;;5.70;3.03;;;14.00;99.90;;;;;;5117661;27;20285;-76
2021/05/08 10:35:43;;;;;;;5.00;3.00;;;14.10;99.90;;;;;;5118259;27;20194;-78
2021/05/08 10:38:22;;;;;;;6.03;3.00;;;14.20;99.90;;;;;;5118209;27;20197;-75
2021/05/08 10:41:02;;;;;;;7.53;3.80;;;14.20;99.90;;;;;;5120139;27;20229;-79
2021/05/08 10:43:54;;;;;;;3.77;3.30;;;14.00;99.90;;;;;;5115298;28;20551;-76
2021/05/08 10:46:22;;;;;;;6.03;3.60;;;13.90;99.90;;;;;;5114570;27;20644;-76
2021/05/08 10:49:18;;;;;;;5.43;3.10;;;13.90;99.90;;;;;;5113576;28;20203;-76
2021/05/08 10:51:55;;;;;;;4.20;3.60;;;13.60;99.90;;;;;;5113128;27;20681;-77
2021/05/08 10:54:55;;;;;;;4.73;3.60;;;13.30;99.90;;;;;;5112759;28;20198;-80
2021/05/08 10:57:23;;;;;;;5.33;3.17;;;13.20;99.90;;;;;;5113711;28;20190;-78
2021/05/08 11:00:23;;;;;;;5.00;3.20;;;13.10;99.90;;;;;;5112702;28;20343;-76
2021/05/08 11:03:02;;;;;;;5.27;3.63;;;13.10;99.90;;;;;;5112583;27;20204;-76
2021/05/08 11:05:31;;;;;;;7.63;3.90;;;13.10;99.90;;;;;;5113117;28;20766;-76
2021/05/08 11:07:58;;;;;;;7.30;3.67;;;13.10;99.90;;;;;;5115182;27;20222;-78
2021/05/08 11:10:41;;;;;;;6.50;4.00;;;13.20;99.90;;;;;;5111811;27;20278;-76
2021/05/08 11:13:10;;;;;;;4.73;3.30;;;13.40;99.90;;;;;;5106376;28;20226;-75
2021/05/08 11:16:07;;;;;;;7.97;3.80;;;13.70;99.90;;;;;;5113098;28;20718;-75
2021/05/08 11:18:35;;;;;;;6.13;3.47;;;13.80;99.90;;;;;;5107731;28;20197;-75
2021/05/08 11:21:03;;;;;;;7.13;3.17;;;13.90;99.90;;;;;;5112288;28;20209;-77
2021/05/08 11:23:41;;;;;;;4.37;3.13;;;14.00;99.90;;;;;;5105071;27;20755;-76
2021/05/08 11:26:40;;;;;;;5.47;3.70;;;14.10;99.90;;;;;;5097300;27;20203;-78
2021/05/08 11:29:10;;;;;;;5.00;3.03;;;14.20;99.90;;;;;;5117296;27;20242;-79
2021/05/08 11:31:37;;;;;;;5.20;2.97;;;14.30;99.90;;;;;;5114467;27;20213;-78
2021/05/08 11:34:08;;;;;;;7.60;3.50;;;14.30;99.90;;;;;;5110017;28;20321;-77
2021/05/08 11:36:46;;;;;;;4.53;2.80;;;14.30;99.90;;;;;;5110373;27;20205;-77
2021/05/08 11:39:13;;;;;;;4.70;3.03;;;14.30;99.90;;;;;;5110299;27;20202;-77
2021/05/08 11:41:40;;;;;;;4.50;3.03;;;14.40;99.90;;;;;;5110329;28;20237;-76
2021/05/08 11:44:08;;;;;;;4.90;3.27;;;14.40;99.90;;;;;;5110282;28;20246;-76
2021/05/08 11:46:35;;;;;;;5.23;2.70;;;14.40;99.90;;;;;;5107088;28;20210;-77
2021/05/08 11:49:02;;;;;;;5.20;3.03;;;14.50;99.90;;;;;;5108955;28;20238;-77
2021/05/08 11:51:43;;;;;;;4.00;2.87;;;14.70;99.90;;;;;;5107830;28;20366;-76
2021/05/08 11:54:11;;;;;;;5.70;2.83;;;14.90;99.90;;;;;;5108418;28;20202;-77
2021/05/08 11:56:37;;;;;;;4.13;2.40;;;15.00;99.90;;;;;;5109378;28;20651;-78
2021/05/08 11:59:06;;;;;;;5.63;2.70;;;15.10;99.90;;;;;;5109962;28;20259;-74
2021/05/08 12:01:33;;;;;;;4.33;2.40;;;15.40;99.90;;;;;;5109512;28;20194;-75
2021/05/08 12:04:02;;;;;;;4.53;2.70;;;15.80;99.90;;;;;;5104044;28;20198;-76
2021/05/08 12:06:29;;;;;;;5.33;2.70;;;16.50;99.90;;;;;;5099798;28;20374;-76
2021/05/08 12:08:56;;;;;;;3.53;2.50;;;16.70;99.90;;;;;;5103910;28;20202;-77
2021/05/08 12:11:24;;;;;;;5.80;2.73;;;17.10;99.90;;;;;;5102158;28;20198;-75
2021/05/08 12:13:51;;;;;;;4.03;2.50;;;17.40;99.90;;;;;;5108433;28;20289;-76
2021/05/08 12:16:17;;;;;;;4.67;2.77;;;17.70;99.90;;;;;;5104418;28;20244;-74
2021/05/08 12:18:45;;;;;;;6.17;2.50;;;17.90;99.90;;;;;;5102354;28;20201;-74
2021/05/08 12:21:14;;;;;;;3.63;2.27;;;17.90;99.90;;;;;;5110601;27;20226;-75
2021/05/08 12:23:41;;;;;;;3.77;2.27;;;18.10;99.90;;;;;;5103049;28;20230;-75
2021/05/08 12:26:12;;;;;;;3.00;2.03;;;18.20;99.90;;;;;;5116025;28;20671;-78
2021/05/08 12:28:39;;;;;;;4.70;2.30;;;18.30;99.90;;;;;;5108881;28;20620;-77
2021/05/08 12:31:29;;;;;;;3.83;2.57;;;18.40;99.90;;;;;;5110254;28;20223;-74
2021/05/08 12:33:58;;;;;;;4.33;2.50;;;18.60;99.90;;;;;;5106604;28;20568;-75
2021/05/08 12:36:26;;;;;;;5.67;2.33;;;18.60;99.90;;;;;;5101174;28;20225;-74
2021/05/08 12:38:54;;;;;;;6.33;2.77;;;18.60;99.90;;;;;;5099290;28;20194;-74
2021/05/08 12:41:32;;;;;;;4.80;2.30;;;18.40;99.90;;;;;;5104493;28;20190;-73
2021/05/08 12:44:03;;;;;;;3.77;2.53;;;18.50;99.90;;;;;;5103644;28;20289;-74
2021/05/08 12:46:57;;;;;;;6.23;2.30;;;18.90;99.90;;;;;;5106049;28;20218;-75
2021/05/08 12:49:25;;;;;;;4.00;2.37;;;18.90;99.90;;;;;;5104062;28;20310;-74
2021/05/08 12:51:52;;;;;;;4.13;2.37;;;19.00;99.90;;;;;;5101103;28;20289;-73
2021/05/08 12:54:26;;;;;;;3.63;2.33;;;19.20;99.90;;;;;;5102627;28;20289;-75
2021/05/08 12:56:54;;;;;;;5.87;2.53;;;19.30;99.90;;;;;;5108031;28;20236;-75